createdAt,value
2023-01-07T00:00:07.683Z,997.40
2023-01-07T00:01:07.578Z,997.37
2023-01-07T00:02:07.548Z,997.43
2023-01-07T00:03:07.551Z,997.44
2023-01-07T00:04:07.612Z,997.39
2023-01-07T00:05:07.542Z,997.39
2023-01-07T00:06:07.521Z,997.43
2023-01-07T00:07:07.489Z,997.38
2023-01-07T00:08:07.495Z,997.39
2023-01-07T00:09:07.483Z,997.38
2023-01-07T00:10:07.461Z,997.37
2023-01-07T00:11:07.451Z,997.34
2023-01-07T00:12:07.450Z,997.36
2023-01-07T00:13:07.423Z,997.32
2023-01-07T00:14:07.422Z,997.36
2023-01-07T00:15:07.434Z,997.33
2023-01-07T00:16:07.485Z,997.27
2023-01-07T00:17:07.393Z,997.28
2023-01-07T00:18:07.379Z,997.29
2023-01-07T00:19:07.371Z,997.28
2023-01-07T00:20:07.366Z,997.30
2023-01-07T00:21:07.353Z,997.27
2023-01-07T00:22:07.331Z,997.31
2023-01-07T00:23:07.304Z,997.27
2023-01-07T00:24:07.288Z,997.23
2023-01-07T00:25:07.292Z,997.23
2023-01-07T00:26:07.294Z,997.22
2023-01-07T00:27:07.284Z,997.22
2023-01-07T00:28:07.337Z,997.29
2023-01-07T00:29:07.241Z,997.30
2023-01-07T00:30:07.239Z,997.25
2023-01-07T00:31:07.280Z,997.23
2023-01-07T00:32:07.210Z,997.22
2023-01-07T00:33:07.197Z,997.18
2023-01-07T00:34:07.187Z,997.17
2023-01-07T00:35:07.165Z,997.20
2023-01-07T00:36:07.169Z,997.18
2023-01-07T00:37:07.171Z,997.16
2023-01-07T00:38:07.149Z,997.13
2023-01-07T00:39:07.161Z,997.13
2023-01-07T00:40:07.123Z,997.04
2023-01-07T00:41:07.091Z,997.09
2023-01-07T00:42:07.097Z,997.10
2023-01-07T00:43:07.093Z,997.08
2023-01-07T00:44:07.060Z,997.06
2023-01-07T00:45:07.043Z,997.04
2023-01-07T00:46:07.057Z,997.01
2023-01-07T00:47:07.038Z,997.00
2023-01-07T00:48:07.028Z,996.98
2023-01-07T00:49:07.013Z,996.99
2023-01-07T00:50:07.030Z,996.96
2023-01-07T00:51:06.981Z,996.99
2023-01-07T00:52:06.988Z,997.03
2023-01-07T00:53:06.957Z,997.00
2023-01-07T00:54:06.961Z,996.97
2023-01-07T00:55:06.931Z,996.99
2023-01-07T00:56:06.922Z,996.99
2023-01-07T00:57:06.915Z,996.97
2023-01-07T00:58:06.929Z,996.98
2023-01-07T00:59:06.915Z,996.93
2023-01-07T01:00:06.876Z,996.94
2023-01-07T01:01:07.064Z,996.92
2023-01-07T01:02:07.008Z,996.96
2023-01-07T01:03:06.841Z,996.99
2023-01-07T01:04:06.855Z,996.92
2023-01-07T01:05:06.859Z,996.94
2023-01-07T01:06:06.824Z,996.90
2023-01-07T01:07:06.811Z,996.92
2023-01-07T01:08:06.795Z,996.88
2023-01-07T01:09:06.776Z,996.90
2023-01-07T01:10:06.793Z,996.86
2023-01-07T01:11:06.830Z,996.82
2023-01-07T01:12:06.744Z,996.87
2023-01-07T01:13:06.765Z,996.87
2023-01-07T01:14:06.726Z,996.85
2023-01-07T01:15:06.739Z,996.83
2023-01-07T01:16:06.771Z,996.83
2023-01-07T01:17:06.695Z,996.80
2023-01-07T01:18:06.675Z,996.80
2023-01-07T01:19:06.683Z,996.76
2023-01-07T01:20:06.669Z,996.77
2023-01-07T01:21:06.659Z,996.77
2023-01-07T01:22:06.636Z,996.70
2023-01-07T01:23:06.640Z,996.78
2023-01-07T01:24:06.621Z,996.78
2023-01-07T01:25:06.626Z,996.71
2023-01-07T01:26:06.586Z,996.74
2023-01-07T01:27:06.604Z,996.67
2023-01-07T01:28:06.577Z,996.74
2023-01-07T01:29:06.547Z,996.74
2023-01-07T01:30:06.540Z,996.73
2023-01-07T01:31:06.596Z,996.72
2023-01-07T01:32:06.518Z,996.75
2023-01-07T01:33:06.532Z,996.71
2023-01-07T01:34:06.497Z,996.81
2023-01-07T01:35:06.481Z,996.78
2023-01-07T01:36:06.479Z,996.79
2023-01-07T01:37:06.466Z,996.81
2023-01-07T01:38:06.468Z,996.83
2023-01-07T01:39:06.435Z,996.81
2023-01-07T01:40:06.433Z,996.82
2023-01-07T01:41:06.408Z,996.80
2023-01-07T01:42:06.433Z,996.84
2023-01-07T01:43:06.405Z,996.82
2023-01-07T01:44:06.385Z,996.77
2023-01-07T01:45:06.377Z,996.78
2023-01-07T01:46:06.364Z,996.80
2023-01-07T01:47:06.396Z,996.80
2023-01-07T01:48:06.362Z,996.76
2023-01-07T01:49:06.333Z,996.76
2023-01-07T01:50:06.319Z,996.76
2023-01-07T01:51:06.287Z,996.73
2023-01-07T01:52:06.310Z,996.81
2023-01-07T01:53:06.287Z,996.74
2023-01-07T01:54:06.261Z,996.73
2023-01-07T01:55:06.259Z,996.69
2023-01-07T01:56:06.239Z,996.69
2023-01-07T01:57:06.237Z,996.68
2023-01-07T01:58:06.210Z,996.70
2023-01-07T01:59:06.229Z,996.68
2023-01-07T02:00:06.211Z,996.66
2023-01-07T02:01:06.354Z,996.66
2023-01-07T02:02:06.323Z,996.67
2023-01-07T02:03:06.158Z,996.59
2023-01-07T02:04:06.142Z,996.64
2023-01-07T02:05:06.146Z,996.64
2023-01-07T02:06:06.176Z,996.61
2023-01-07T02:07:06.140Z,996.61
2023-01-07T02:08:06.097Z,996.60
2023-01-07T02:09:06.093Z,996.61
2023-01-07T02:10:06.081Z,996.56
2023-01-07T02:11:06.068Z,996.51
2023-01-07T02:12:06.061Z,996.49
2023-01-07T02:13:06.057Z,996.53
2023-01-07T02:14:06.038Z,996.50
2023-01-07T02:15:06.023Z,996.49
2023-01-07T02:16:06.049Z,996.52
2023-01-07T02:17:06.000Z,996.47
2023-01-07T02:18:05.994Z,996.52
2023-01-07T02:19:05.994Z,996.54
2023-01-07T02:20:05.976Z,996.51
2023-01-07T02:21:05.946Z,996.44
2023-01-07T02:22:05.945Z,996.49
2023-01-07T02:23:05.965Z,996.50
2023-01-07T02:24:05.930Z,996.47
2023-01-07T02:25:05.938Z,996.50
2023-01-07T02:26:05.900Z,996.45
2023-01-07T02:27:05.885Z,996.45
2023-01-07T02:28:05.904Z,996.50
2023-01-07T02:29:05.869Z,996.46
2023-01-07T02:30:05.861Z,996.45
2023-01-07T02:31:05.868Z,996.45
2023-01-07T02:32:05.843Z,996.48
2023-01-07T02:33:05.811Z,996.48
2023-01-07T02:34:05.825Z,996.47
2023-01-07T02:35:05.798Z,996.48
2023-01-07T02:36:05.789Z,996.47
2023-01-07T02:37:05.782Z,996.45
2023-01-07T02:38:05.758Z,996.46
2023-01-07T02:39:05.756Z,996.52
2023-01-07T02:40:05.729Z,996.51
2023-01-07T02:41:05.724Z,996.50
2023-01-07T02:42:05.701Z,996.51
2023-01-07T02:43:05.712Z,996.48
2023-01-07T02:44:05.679Z,996.44
2023-01-07T02:45:05.677Z,996.47
2023-01-07T02:46:05.752Z,996.44
2023-01-07T02:47:05.652Z,996.41
2023-01-07T02:48:05.660Z,996.42
2023-01-07T02:49:05.646Z,996.40
2023-01-07T02:50:05.630Z,996.42
2023-01-07T02:51:05.610Z,996.39
2023-01-07T02:52:05.587Z,996.40
2023-01-07T02:53:05.587Z,996.35
2023-01-07T02:54:05.580Z,996.39
2023-01-07T02:55:05.574Z,996.36
2023-01-07T02:56:05.552Z,996.37
2023-01-07T02:57:05.562Z,996.33
2023-01-07T02:58:05.527Z,996.37
2023-01-07T02:59:05.527Z,996.33
2023-01-07T03:00:05.521Z,996.37
2023-01-07T03:01:05.690Z,996.37
2023-01-07T03:02:05.649Z,996.38
2023-01-07T03:03:05.489Z,996.38
2023-01-07T03:04:05.552Z,996.41
2023-01-07T03:05:05.470Z,996.37
2023-01-07T03:06:05.457Z,996.41
2023-01-07T03:07:05.431Z,996.33
2023-01-07T03:08:05.424Z,996.30
2023-01-07T03:09:05.408Z,996.30
2023-01-07T03:10:05.398Z,996.30
2023-01-07T03:11:05.389Z,996.32
2023-01-07T03:12:05.381Z,996.29
2023-01-07T03:13:05.369Z,996.32
2023-01-07T03:14:05.365Z,996.30
2023-01-07T03:15:05.352Z,996.29
2023-01-07T03:16:05.432Z,996.25
2023-01-07T03:17:05.310Z,996.23
2023-01-07T03:18:05.303Z,996.25
2023-01-07T03:19:05.293Z,996.20
2023-01-07T03:20:05.286Z,996.23
2023-01-07T03:21:05.288Z,996.21
2023-01-07T03:22:05.279Z,996.19
2023-01-07T03:23:05.255Z,996.15
2023-01-07T03:24:05.236Z,996.13
2023-01-07T03:25:05.229Z,996.15
2023-01-07T03:26:05.227Z,996.11
2023-01-07T03:27:05.221Z,996.17
2023-01-07T03:28:10.731Z,996.15
2023-01-07T03:29:05.191Z,996.14
2023-01-07T03:30:05.180Z,996.12
2023-01-07T03:31:05.167Z,996.12
2023-01-07T03:32:05.235Z,996.13
2023-01-07T03:33:05.146Z,996.09
2023-01-07T03:34:05.152Z,996.07
2023-01-07T03:35:05.115Z,996.07
2023-01-07T03:36:05.111Z,996.04
2023-01-07T03:37:05.101Z,996.05
2023-01-07T03:38:05.099Z,996.04
2023-01-07T03:39:05.068Z,996.03
2023-01-07T03:40:05.062Z,996.05
2023-01-07T03:41:05.047Z,996.03
2023-01-07T03:42:05.047Z,996.01
2023-01-07T03:43:05.036Z,996.02
2023-01-07T03:44:05.035Z,995.98
2023-01-07T03:45:05.010Z,996.00
2023-01-07T03:46:05.037Z,995.96
2023-01-07T03:47:05.007Z,995.93
2023-01-07T03:48:04.972Z,995.99
2023-01-07T03:49:04.965Z,995.96
2023-01-07T03:50:04.971Z,995.93
2023-01-07T03:51:04.937Z,995.96
2023-01-07T03:52:04.984Z,995.95
2023-01-07T03:53:04.941Z,995.92
2023-01-07T03:54:04.917Z,995.93
2023-01-07T03:55:04.911Z,995.91
2023-01-07T03:56:04.902Z,995.88
2023-01-07T03:57:04.888Z,995.88
2023-01-07T03:58:04.879Z,995.78
2023-01-07T03:59:04.862Z,995.83
2023-01-07T04:00:04.866Z,995.83
2023-01-07T04:01:04.961Z,995.85
2023-01-07T04:02:05.006Z,995.77
2023-01-07T04:03:04.814Z,995.79
2023-01-07T04:04:04.894Z,995.79
2023-01-07T04:05:04.793Z,995.72
2023-01-07T04:06:04.779Z,995.68
2023-01-07T04:07:04.786Z,995.68
2023-01-07T04:08:04.761Z,995.65
2023-01-07T04:09:04.774Z,995.66
2023-01-07T04:10:04.749Z,995.69
2023-01-07T04:11:04.751Z,995.75
2023-01-07T04:12:04.755Z,995.76
2023-01-07T04:13:04.715Z,995.73
2023-01-07T04:14:04.715Z,995.66
2023-01-07T04:15:04.760Z,995.65
2023-01-07T04:16:04.682Z,995.64
2023-01-07T04:17:04.670Z,995.65
2023-01-07T04:18:04.664Z,995.64
2023-01-07T04:19:04.658Z,995.70
2023-01-07T04:20:04.661Z,995.71
2023-01-07T04:21:04.627Z,995.66
2023-01-07T04:22:04.612Z,995.71
2023-01-07T04:23:04.604Z,995.61
2023-01-07T04:24:04.598Z,995.62
2023-01-07T04:25:04.604Z,995.63
2023-01-07T04:26:04.598Z,995.58
2023-01-07T04:27:04.550Z,995.62
2023-01-07T04:28:04.553Z,995.59
2023-01-07T04:29:04.536Z,995.53
2023-01-07T04:30:04.516Z,995.54
2023-01-07T04:31:04.609Z,995.51
2023-01-07T04:32:04.503Z,995.50
2023-01-07T04:33:04.509Z,995.48
2023-01-07T04:34:04.518Z,995.47
2023-01-07T04:35:04.479Z,995.43
2023-01-07T04:36:04.469Z,995.41
2023-01-07T04:37:04.464Z,995.40
2023-01-07T04:38:04.445Z,995.40
2023-01-07T04:39:04.434Z,995.40
2023-01-07T04:40:04.420Z,995.37
2023-01-07T04:41:04.406Z,995.41
2023-01-07T04:42:04.393Z,995.37
2023-01-07T04:43:04.382Z,995.36
2023-01-07T04:44:04.367Z,995.36
2023-01-07T04:45:04.356Z,995.33
2023-01-07T04:46:04.462Z,995.33
2023-01-07T04:47:04.344Z,995.35
2023-01-07T04:48:04.346Z,995.31
2023-01-07T04:49:04.322Z,995.31
2023-01-07T04:50:04.313Z,995.28
2023-01-07T04:51:04.298Z,995.27
2023-01-07T04:52:04.289Z,995.22
2023-01-07T04:53:04.277Z,995.20
2023-01-07T04:54:04.282Z,995.16
2023-01-07T04:55:04.265Z,995.13
2023-01-07T04:56:04.248Z,995.06
2023-01-07T04:57:04.238Z,995.11
2023-01-07T04:58:04.220Z,995.08
2023-01-07T04:59:04.299Z,995.03
2023-01-07T05:00:04.211Z,995.08
2023-01-07T05:01:04.382Z,995.02
2023-01-07T05:02:04.373Z,995.03
2023-01-07T05:03:04.178Z,995.01
2023-01-07T05:04:04.219Z,995.02
2023-01-07T05:05:04.149Z,995.02
2023-01-07T05:06:04.146Z,995.09
2023-01-07T05:07:04.133Z,995.01
2023-01-07T05:08:04.104Z,994.99
2023-01-07T05:09:04.107Z,994.94
2023-01-07T05:10:04.091Z,994.96
2023-01-07T05:11:04.082Z,994.93
2023-01-07T05:12:04.089Z,994.95
2023-01-07T05:13:06.060Z,994.97
2023-01-07T05:14:04.060Z,995.00
2023-01-07T05:15:04.048Z,994.95
2023-01-07T05:16:04.050Z,994.92
2023-01-07T05:17:04.113Z,994.95
2023-01-07T05:18:04.022Z,994.88
2023-01-07T05:19:03.995Z,994.83
2023-01-07T05:20:03.995Z,994.83
2023-01-07T05:21:03.977Z,994.89
2023-01-07T05:22:03.983Z,994.86
2023-01-07T05:23:03.953Z,994.85
2023-01-07T05:24:03.964Z,994.88
2023-01-07T05:25:03.955Z,994.89
2023-01-07T05:26:03.921Z,994.92
2023-01-07T05:27:03.942Z,994.84
2023-01-07T05:28:03.913Z,994.84
2023-01-07T05:29:03.898Z,994.79
2023-01-07T05:30:03.883Z,994.84
2023-01-07T05:31:03.957Z,994.78
2023-01-07T05:32:03.870Z,994.85
2023-01-07T05:33:03.875Z,994.79
2023-01-07T05:34:03.841Z,994.81
2023-01-07T05:35:03.831Z,994.76
2023-01-07T05:36:03.836Z,994.75
2023-01-07T05:37:03.903Z,994.72
2023-01-07T05:38:03.920Z,994.72
2023-01-07T05:39:03.984Z,994.73
2023-01-07T05:40:03.959Z,994.76
2023-01-07T05:41:03.785Z,994.72
2023-01-07T05:42:04.105Z,994.69
2023-01-07T05:43:03.772Z,994.71
2023-01-07T05:44:03.756Z,994.65
2023-01-07T05:45:03.739Z,994.71
2023-01-07T05:46:03.776Z,994.69
2023-01-07T05:47:03.714Z,994.71
2023-01-07T05:48:03.703Z,994.71
2023-01-07T05:49:03.680Z,994.60
2023-01-07T05:50:03.676Z,994.62
2023-01-07T05:51:03.695Z,994.67
2023-01-07T05:52:03.657Z,994.66
2023-01-07T05:53:03.653Z,994.65
2023-01-07T05:54:03.640Z,994.63
2023-01-07T05:55:03.641Z,994.62
2023-01-07T05:56:03.663Z,994.64
2023-01-07T05:57:03.610Z,994.66
2023-01-07T05:58:03.621Z,994.64
2023-01-07T05:59:03.784Z,994.66
2023-01-07T06:00:03.569Z,994.62
2023-01-07T06:01:03.591Z,994.65
2023-01-07T06:02:03.547Z,994.63
2023-01-07T06:03:03.617Z,994.61
2023-01-07T06:04:03.772Z,994.62
2023-01-07T06:05:03.792Z,994.68
2023-01-07T06:06:03.500Z,994.64
2023-01-07T06:07:03.517Z,994.66
2023-01-07T06:08:03.493Z,994.66
2023-01-07T06:09:03.487Z,994.62
2023-01-07T06:10:03.483Z,994.59
2023-01-07T06:11:03.451Z,994.57
2023-01-07T06:12:03.455Z,994.60
2023-01-07T06:13:03.442Z,994.51
2023-01-07T06:14:03.419Z,994.53
2023-01-07T06:15:03.452Z,994.56
2023-01-07T06:16:03.459Z,994.54
2023-01-07T06:17:03.406Z,994.55
2023-01-07T06:18:03.390Z,994.55
2023-01-07T06:19:03.378Z,994.51
2023-01-07T06:20:03.372Z,994.50
2023-01-07T06:21:03.363Z,994.47
2023-01-07T06:22:03.343Z,994.48
2023-01-07T06:23:03.330Z,994.48
2023-01-07T06:24:03.333Z,994.52
2023-01-07T06:25:03.308Z,994.52
2023-01-07T06:26:03.304Z,994.47
2023-01-07T06:27:03.296Z,994.48
2023-01-07T06:28:03.284Z,994.48
2023-01-07T06:29:03.269Z,994.53
2023-01-07T06:30:03.278Z,994.46
2023-01-07T06:31:03.280Z,994.48
2023-01-07T06:32:03.255Z,994.48
2023-01-07T06:33:03.237Z,994.50
2023-01-07T06:34:03.227Z,994.52
2023-01-07T06:35:03.212Z,994.50
2023-01-07T06:36:03.192Z,994.46
2023-01-07T06:37:03.204Z,994.46
2023-01-07T06:38:03.176Z,994.41
2023-01-07T06:39:03.189Z,994.39
2023-01-07T06:40:03.200Z,994.39
2023-01-07T06:41:03.157Z,994.36
2023-01-07T06:42:03.132Z,994.33
2023-01-07T06:43:03.131Z,994.27
2023-01-07T06:44:03.110Z,994.27
2023-01-07T06:45:03.107Z,994.31
2023-01-07T06:46:03.144Z,994.29
2023-01-07T06:47:03.098Z,994.29
2023-01-07T06:48:03.082Z,994.32
2023-01-07T06:49:03.065Z,994.35
2023-01-07T06:50:03.053Z,994.29
2023-01-07T06:51:03.059Z,994.34
2023-01-07T06:52:03.047Z,994.36
2023-01-07T06:53:03.022Z,994.39
2023-01-07T06:54:03.019Z,994.39
2023-01-07T06:55:02.992Z,994.35
2023-01-07T06:56:02.983Z,994.38
2023-01-07T06:57:03.006Z,994.34
2023-01-07T06:58:02.966Z,994.32
2023-01-07T06:59:02.960Z,994.36
2023-01-07T07:00:02.948Z,994.42
2023-01-07T07:01:02.968Z,994.33
2023-01-07T07:02:02.992Z,994.30
2023-01-07T07:03:03.034Z,994.30
2023-01-07T07:04:02.915Z,994.24
2023-01-07T07:05:02.901Z,994.22
2023-01-07T07:06:02.876Z,994.19
2023-01-07T07:07:02.872Z,994.19
2023-01-07T07:08:02.855Z,994.17
2023-01-07T07:09:02.882Z,994.17
2023-01-07T07:10:02.832Z,994.15
2023-01-07T07:11:02.869Z,994.16
2023-01-07T07:12:02.816Z,994.20
2023-01-07T07:13:02.838Z,994.22
2023-01-07T07:14:02.803Z,994.15
2023-01-07T07:15:02.805Z,994.13
2023-01-07T07:16:02.853Z,994.14
2023-01-07T07:17:02.786Z,994.13
2023-01-07T07:18:02.746Z,994.06
2023-01-07T07:19:02.746Z,994.07
2023-01-07T07:20:02.761Z,994.02
2023-01-07T07:21:02.741Z,994.02
2023-01-07T07:22:04.607Z,994.03
2023-01-07T07:23:02.710Z,994.03
2023-01-07T07:24:02.693Z,994.00
2023-01-07T07:25:02.677Z,993.99
2023-01-07T07:26:02.681Z,993.99
2023-01-07T07:27:02.678Z,993.99
2023-01-07T07:28:02.646Z,994.04
2023-01-07T07:29:02.653Z,994.02
2023-01-07T07:30:02.633Z,994.03
2023-01-07T07:31:02.717Z,994.04
2023-01-07T07:32:02.601Z,994.03
2023-01-07T07:33:02.620Z,994.08
2023-01-07T07:34:02.596Z,994.04
2023-01-07T07:35:02.571Z,994.06
2023-01-07T07:36:02.571Z,994.05
2023-01-07T07:37:02.551Z,994.05
2023-01-07T07:38:02.548Z,994.10
2023-01-07T07:39:02.535Z,994.08
2023-01-07T07:40:02.527Z,994.13
2023-01-07T07:41:02.533Z,994.02
2023-01-07T07:42:02.493Z,994.05
2023-01-07T07:43:10.834Z,994.00
2023-01-07T07:44:02.527Z,994.02
2023-01-07T07:45:02.465Z,993.99
2023-01-07T07:46:02.459Z,993.97
2023-01-07T07:47:02.445Z,993.94
2023-01-07T07:48:02.440Z,993.93
2023-01-07T07:49:02.466Z,993.98
2023-01-07T07:50:02.433Z,994.03
2023-01-07T07:51:02.401Z,993.95
2023-01-07T07:52:02.393Z,993.98
2023-01-07T07:53:02.392Z,993.94
2023-01-07T07:54:02.416Z,993.96
2023-01-07T07:55:20.468Z,993.88
2023-01-07T07:56:02.355Z,993.95
2023-01-07T07:57:02.336Z,993.95
2023-01-07T07:58:02.340Z,993.93
2023-01-07T07:59:02.316Z,993.90
2023-01-07T08:00:02.332Z,993.93
2023-01-07T08:01:02.352Z,993.93
2023-01-07T08:02:02.326Z,993.96
2023-01-07T08:03:02.367Z,993.90
2023-01-07T08:04:02.298Z,993.98
2023-01-07T08:05:02.256Z,993.89
2023-01-07T08:06:02.251Z,993.83
2023-01-07T08:07:02.238Z,993.85
2023-01-07T08:08:02.226Z,993.89
2023-01-07T08:09:02.216Z,993.87
2023-01-07T08:10:02.212Z,993.91
2023-01-07T08:11:02.196Z,993.86
2023-01-07T08:12:02.176Z,993.86
2023-01-07T08:13:02.218Z,993.86
2023-01-07T08:14:02.158Z,993.81
2023-01-07T08:15:02.167Z,993.80
2023-01-07T08:16:02.130Z,993.80
2023-01-07T08:17:02.127Z,993.90
2023-01-07T08:18:02.146Z,993.77
2023-01-07T08:19:02.111Z,993.81
2023-01-07T08:20:02.114Z,993.79
2023-01-07T08:21:02.097Z,993.82
2023-01-07T08:22:02.105Z,993.79
2023-01-07T08:23:02.091Z,993.76
2023-01-07T08:24:02.552Z,993.78
2023-01-07T08:25:02.426Z,993.72
2023-01-07T08:26:02.045Z,993.73
2023-01-07T08:27:02.022Z,993.75
2023-01-07T08:28:02.023Z,993.77
2023-01-07T08:29:02.003Z,993.73
2023-01-07T08:30:02.027Z,993.77
2023-01-07T08:31:02.026Z,993.77
2023-01-07T08:32:01.979Z,993.78
2023-01-07T08:33:01.960Z,993.74
2023-01-07T08:34:01.954Z,993.75
2023-01-07T08:35:01.967Z,993.72
2023-01-07T08:36:03.617Z,993.73
2023-01-07T08:37:01.926Z,993.73
2023-01-07T08:38:01.929Z,993.70
2023-01-07T08:39:01.903Z,993.68
2023-01-07T08:40:03.992Z,993.64
2023-01-07T08:41:01.890Z,993.68
2023-01-07T08:42:01.887Z,993.68
2023-01-07T08:43:01.967Z,993.69
2023-01-07T08:44:01.851Z,993.70
2023-01-07T08:45:01.886Z,993.68
2023-01-07T08:46:01.860Z,993.72
2023-01-07T08:47:01.856Z,993.75
2023-01-07T08:48:01.835Z,993.77
2023-01-07T08:49:01.846Z,993.72
2023-01-07T08:50:01.834Z,993.72
2023-01-07T08:51:01.779Z,993.66
2023-01-07T08:52:01.771Z,993.70
2023-01-07T08:53:01.798Z,993.66
2023-01-07T08:54:01.754Z,993.68
2023-01-07T08:55:01.735Z,993.66
2023-01-07T08:56:01.735Z,993.62
2023-01-07T08:57:01.732Z,993.59
2023-01-07T08:58:01.703Z,993.55
2023-01-07T08:59:01.718Z,993.58
2023-01-07T09:00:01.679Z,993.56
2023-01-07T09:01:01.809Z,993.53
2023-01-07T09:02:01.779Z,993.53
2023-01-07T09:03:01.653Z,993.51
2023-01-07T09:04:01.654Z,993.52
2023-01-07T09:05:01.626Z,993.46
2023-01-07T09:06:01.624Z,993.42
2023-01-07T09:07:01.602Z,993.44
2023-01-07T09:08:01.601Z,993.41
2023-01-07T09:09:01.600Z,993.44
2023-01-07T09:10:01.685Z,993.44
2023-01-07T09:11:01.566Z,993.48
2023-01-07T09:12:01.556Z,993.48
2023-01-07T09:13:01.537Z,993.47
2023-01-07T09:14:01.533Z,993.42
2023-01-07T09:15:01.526Z,993.43
2023-01-07T09:16:01.587Z,993.40
2023-01-07T09:17:01.496Z,993.38
2023-01-07T09:18:01.500Z,993.35
2023-01-07T09:19:01.491Z,993.29
2023-01-07T09:20:01.549Z,993.40
2023-01-07T09:21:01.464Z,993.40
2023-01-07T09:22:01.465Z,993.40
2023-01-07T09:23:01.434Z,993.34
2023-01-07T09:24:01.445Z,993.28
2023-01-07T09:25:01.410Z,993.33
2023-01-07T09:26:01.401Z,993.29
2023-01-07T09:27:01.406Z,993.26
2023-01-07T09:28:01.380Z,993.21
2023-01-07T09:29:01.365Z,993.22
2023-01-07T09:30:01.402Z,993.20
2023-01-07T09:31:01.339Z,993.19
2023-01-07T09:32:01.382Z,993.18
2023-01-07T09:33:01.314Z,993.14
2023-01-07T09:34:01.325Z,993.16
2023-01-07T09:35:01.300Z,993.17
2023-01-07T09:36:01.287Z,993.12
2023-01-07T09:37:01.301Z,993.12
2023-01-07T09:38:01.312Z,993.14
2023-01-07T09:39:01.252Z,993.11
2023-01-07T09:40:01.309Z,993.12
2023-01-07T09:41:01.258Z,993.16
2023-01-07T09:42:01.304Z,993.17
2023-01-07T09:43:01.241Z,993.18
2023-01-07T09:44:01.908Z,993.17
2023-01-07T09:45:01.236Z,993.14
2023-01-07T09:46:01.254Z,993.08
2023-01-07T09:47:01.167Z,993.12
2023-01-07T09:48:01.173Z,993.09
2023-01-07T09:49:01.196Z,993.06
2023-01-07T09:50:01.135Z,993.09
2023-01-07T09:51:01.144Z,993.11
2023-01-07T09:52:01.125Z,993.08
2023-01-07T09:53:01.100Z,993.04
2023-01-07T09:54:01.144Z,993.06
2023-01-07T09:55:01.091Z,993.00
2023-01-07T09:56:10.937Z,993.05
2023-01-07T09:57:01.877Z,993.02
2023-01-07T09:58:01.536Z,993.05
2023-01-07T09:59:01.115Z,992.99
2023-01-07T10:00:01.038Z,993.00
2023-01-07T10:01:01.065Z,993.03
2023-01-07T10:02:01.005Z,993.05
2023-01-07T10:03:01.044Z,993.02
2023-01-07T10:04:01.073Z,992.98
2023-01-07T10:05:00.988Z,992.97
2023-01-07T10:06:00.971Z,993.00
2023-01-07T10:07:00.948Z,992.97
2023-01-07T10:08:31.693Z,992.97
2023-01-07T10:09:00.948Z,992.93
2023-01-07T10:10:00.912Z,992.90
2023-01-07T10:11:00.905Z,992.88
2023-01-07T10:12:00.888Z,992.92
2023-01-07T10:13:00.893Z,992.94
2023-01-07T10:14:00.885Z,992.89
2023-01-07T10:15:00.862Z,992.87
2023-01-07T10:16:01.058Z,992.86
2023-01-07T10:17:00.830Z,992.91
2023-01-07T10:18:00.829Z,992.83
2023-01-07T10:19:00.833Z,992.84
2023-01-07T10:20:00.801Z,992.83
2023-01-07T10:21:00.794Z,992.83
2023-01-07T10:22:00.774Z,992.79
2023-01-07T10:23:00.775Z,992.80
2023-01-07T10:24:00.756Z,992.76
2023-01-07T10:25:00.765Z,992.75
2023-01-07T10:26:00.732Z,992.70
2023-01-07T10:27:00.722Z,992.70
2023-01-07T10:28:00.751Z,992.62
2023-01-07T10:29:00.719Z,992.56
2023-01-07T10:30:00.720Z,992.53
2023-01-07T10:31:00.680Z,992.54
2023-01-07T10:32:00.768Z,992.51
2023-01-07T10:33:00.942Z,992.47
2023-01-07T10:34:00.644Z,992.48
2023-01-07T10:35:00.643Z,992.48
2023-01-07T10:36:00.621Z,992.45
2023-01-07T10:37:00.611Z,992.44
2023-01-07T10:38:00.591Z,992.44
2023-01-07T10:39:00.578Z,992.45
2023-01-07T10:40:00.584Z,992.45
2023-01-07T10:41:00.553Z,992.40
2023-01-07T10:42:00.566Z,992.43
2023-01-07T10:43:00.533Z,992.38
2023-01-07T10:44:00.517Z,992.40
2023-01-07T10:45:00.514Z,992.39
2023-01-07T10:46:00.626Z,992.35
2023-01-07T10:47:00.488Z,992.34
2023-01-07T10:48:00.493Z,992.32
2023-01-07T10:49:00.459Z,992.35
2023-01-07T10:50:00.446Z,992.25
2023-01-07T10:51:00.451Z,992.24
2023-01-07T10:52:00.429Z,992.17
2023-01-07T10:53:00.423Z,992.18
2023-01-07T10:54:00.409Z,992.15
2023-01-07T10:55:00.410Z,992.12
2023-01-07T10:56:00.405Z,992.12
2023-01-07T10:57:00.377Z,992.04
2023-01-07T10:58:00.369Z,992.04
2023-01-07T10:59:00.353Z,991.99
2023-01-07T11:00:00.339Z,992.00
2023-01-07T11:01:00.481Z,992.02
2023-01-07T11:02:00.650Z,992.00
2023-01-07T11:03:00.431Z,991.92
2023-01-07T11:04:00.290Z,991.97
2023-01-07T11:05:00.293Z,991.92
2023-01-07T11:06:00.269Z,991.92
2023-01-07T11:07:00.268Z,991.90
2023-01-07T11:08:00.260Z,991.89
2023-01-07T11:09:00.232Z,991.77
2023-01-07T11:10:00.231Z,991.76
2023-01-07T11:11:00.207Z,991.74
2023-01-07T11:12:00.217Z,991.65
2023-01-07T11:13:00.206Z,991.72
2023-01-07T11:14:00.172Z,991.66
2023-01-07T11:15:00.163Z,991.62
2023-01-07T11:16:00.150Z,991.66
2023-01-07T11:17:00.151Z,991.71
2023-01-07T11:18:00.209Z,991.56
2023-01-07T11:19:00.131Z,991.50
2023-01-07T11:20:00.164Z,991.46
2023-01-07T11:21:00.143Z,991.42
2023-01-07T11:22:00.088Z,991.50
2023-01-07T11:23:00.100Z,991.49
2023-01-07T11:24:00.104Z,991.49
2023-01-07T11:25:00.083Z,991.41
2023-01-07T11:26:00.052Z,991.40
2023-01-07T11:27:00.124Z,991.40
2023-01-07T11:28:00.102Z,991.45
2023-01-07T11:29:00.039Z,991.33
2023-01-07T11:30:00.178Z,991.25
2023-01-07T11:31:00.005Z,991.25
2023-01-07T11:32:00.135Z,991.34
2023-01-07T11:32:59.964Z,991.27
2023-01-07T11:34:02.840Z,991.27
2023-01-07T11:34:59.951Z,991.23
2023-01-07T11:35:59.939Z,991.26
2023-01-07T11:36:59.941Z,991.22
2023-01-07T11:37:59.899Z,991.22
2023-01-07T11:38:59.903Z,991.18
2023-01-07T11:39:59.897Z,991.18
2023-01-07T11:41:00.770Z,991.21
2023-01-07T11:41:59.887Z,991.10
2023-01-07T11:42:59.850Z,991.11
2023-01-07T11:43:59.858Z,991.12
2023-01-07T11:45:00.094Z,991.11
2023-01-07T11:46:19.149Z,991.07
2023-01-07T11:46:59.868Z,991.03
2023-01-07T11:47:59.799Z,991.07
2023-01-07T11:48:59.860Z,991.07
2023-01-07T11:49:59.785Z,990.96
2023-01-07T11:50:59.804Z,990.92
2023-01-07T11:51:59.753Z,990.92
2023-01-07T11:52:59.738Z,990.88
2023-01-07T11:53:59.744Z,990.82
2023-01-07T11:54:59.704Z,990.77
2023-01-07T11:55:59.726Z,990.81
2023-01-07T11:56:59.693Z,990.77
2023-01-07T11:58:28.326Z,990.80
2023-01-07T11:58:59.671Z,990.70
2023-01-07T11:59:59.669Z,990.75
2023-01-07T12:00:59.690Z,990.73
2023-01-07T12:01:59.795Z,990.71
2023-01-07T12:02:59.619Z,990.67
2023-01-07T12:03:59.608Z,990.60
2023-01-07T12:04:59.596Z,990.54
2023-01-07T12:05:59.587Z,990.58
2023-01-07T12:06:59.595Z,990.56
2023-01-07T12:07:59.581Z,990.46
2023-01-07T12:08:59.562Z,990.48
2023-01-07T12:09:59.537Z,990.42
2023-01-07T12:10:59.529Z,990.48
2023-01-07T12:11:59.511Z,990.32
2023-01-07T12:12:59.547Z,990.40
2023-01-07T12:13:59.492Z,990.34
2023-01-07T12:14:59.478Z,990.36
2023-01-07T12:15:59.485Z,990.35
2023-01-07T12:16:59.451Z,990.26
2023-01-07T12:17:59.449Z,990.33
2023-01-07T12:18:59.463Z,990.26
2023-01-07T12:19:59.440Z,990.24
2023-01-07T12:20:59.410Z,990.30
2023-01-07T12:21:59.401Z,990.27
2023-01-07T12:22:59.405Z,990.26
2023-01-07T12:23:59.393Z,990.29
2023-01-07T12:24:59.360Z,990.25
2023-01-07T12:25:59.404Z,990.25
2023-01-07T12:26:59.357Z,990.28
2023-01-07T12:27:59.336Z,990.20